createdAt,value
2022-08-02T00:00:08.885Z,68.84
2022-08-02T00:02:35.407Z,68.06
2022-08-02T00:05:02.007Z,68.39
2022-08-02T00:07:28.591Z,67.81
2022-08-02T00:09:55.081Z,67.94
2022-08-02T00:12:21.949Z,69.00
2022-08-02T00:14:48.817Z,70.21
2022-08-02T00:17:15.311Z,70.51
2022-08-02T00:19:41.835Z,69.73
2022-08-02T00:22:08.879Z,70.56
2022-08-02T00:24:35.739Z,71.27
2022-08-02T00:27:03.891Z,70.65
2022-08-02T00:29:42.733Z,70.26
2022-08-02T00:32:20.038Z,70.77
2022-08-02T00:34:46.674Z,71.00
2022-08-02T00:37:13.254Z,69.81
2022-08-02T00:39:39.913Z,71.10
2022-08-02T00:42:06.625Z,70.67
2022-08-02T00:44:33.173Z,71.09
2022-08-02T00:46:59.904Z,71.28
2022-08-02T00:49:26.512Z,70.74
2022-08-02T00:51:53.390Z,70.18
2022-08-02T00:54:20.739Z,71.33
2022-08-02T00:56:50.953Z,70.62
2022-08-02T00:59:18.283Z,70.89
2022-08-02T01:01:57.411Z,71.26
2022-08-02T01:04:30.953Z,71.25
2022-08-02T01:07:00.065Z,71.53
2022-08-02T01:09:26.799Z,71.35
2022-08-02T01:11:53.539Z,71.26
2022-08-02T01:14:20.333Z,71.82
2022-08-02T01:16:52.876Z,72.12
2022-08-02T01:19:48.609Z,72.14
2022-08-02T01:23:00.634Z,72.66
2022-08-02T01:26:12.231Z,71.90
2022-08-02T01:28:54.848Z,72.30
2022-08-02T01:31:32.733Z,72.40
2022-08-02T01:34:05.228Z,71.77
2022-08-02T01:36:38.726Z,71.91
2022-08-02T01:39:06.345Z,72.45
2022-08-02T01:41:33.236Z,72.62
2022-08-02T01:44:00.888Z,71.85
2022-08-02T01:46:29.561Z,72.13
2022-08-02T01:48:57.974Z,71.89
2022-08-02T01:51:46.255Z,71.81
2022-08-02T01:54:15.773Z,71.41
2022-08-02T01:56:42.770Z,71.39
2022-08-02T01:59:11.968Z,71.63
2022-08-02T02:01:39.921Z,72.27
2022-08-02T02:04:08.436Z,72.17
2022-08-02T02:06:36.578Z,71.54
2022-08-02T02:09:03.957Z,70.93
2022-08-02T02:12:11.896Z,71.79
2022-08-02T02:14:17.907Z,71.09
2022-08-02T02:16:46.949Z,71.84
2022-08-02T02:19:14.257Z,71.30
2022-08-02T02:21:48.001Z,71.37
2022-08-02T02:24:14.565Z,71.81
2022-08-02T02:26:47.109Z,70.46
2022-08-02T02:29:20.726Z,70.49
2022-08-02T02:31:48.553Z,70.20
2022-08-02T02:34:17.356Z,70.02
2022-08-02T02:36:49.821Z,69.73
2022-08-02T02:39:17.737Z,69.99
2022-08-02T02:41:44.642Z,70.22
2022-08-02T02:44:14.087Z,71.46
2022-08-02T02:46:41.079Z,70.70
2022-08-02T02:49:10.498Z,70.57
2022-08-02T02:51:39.950Z,72.40
2022-08-02T02:54:30.060Z,69.83
2022-08-02T02:56:54.477Z,70.28
2022-08-02T02:59:21.250Z,71.11
2022-08-02T03:01:56.714Z,71.13
2022-08-02T03:04:25.179Z,70.27
2022-08-02T03:06:51.748Z,70.67
2022-08-02T03:09:18.288Z,70.81
2022-08-02T03:11:45.105Z,70.81
2022-08-02T03:14:12.520Z,70.98
2022-08-02T03:16:47.332Z,71.22
2022-08-02T03:19:14.356Z,70.81
2022-08-02T03:21:42.328Z,69.57
2022-08-02T03:24:09.190Z,71.47
2022-08-02T03:26:35.923Z,70.54
2022-08-02T03:29:09.993Z,71.01
2022-08-02T03:31:40.402Z,70.99
2022-08-02T03:34:07.138Z,71.05
2022-08-02T03:36:34.902Z,71.16
2022-08-02T03:39:02.092Z,69.60
2022-08-02T03:41:29.455Z,70.20
2022-08-02T03:43:56.675Z,70.79
2022-08-02T03:46:25.059Z,70.91
2022-08-02T03:48:52.520Z,69.80
2022-08-02T03:51:20.352Z,69.95
2022-08-02T03:53:48.518Z,70.88
2022-08-02T03:56:15.834Z,70.97
2022-08-02T03:58:45.775Z,71.11
2022-08-02T04:01:15.627Z,70.45
2022-08-02T04:03:42.192Z,71.28
2022-08-02T04:06:08.700Z,71.15
2022-08-02T04:08:38.357Z,70.97
2022-08-02T04:11:24.541Z,69.80
2022-08-02T04:13:51.177Z,70.18
2022-08-02T04:16:22.962Z,69.70
2022-08-02T04:19:02.668Z,70.42
2022-08-02T04:21:50.302Z,69.93
2022-08-02T04:24:21.103Z,69.65
2022-08-02T04:26:52.883Z,68.56
2022-08-02T04:29:19.913Z,68.89
2022-08-02T04:31:46.537Z,68.41
2022-08-02T04:34:15.307Z,68.58
2022-08-02T04:36:42.152Z,69.02
2022-08-02T04:39:08.730Z,69.05
2022-08-02T04:41:43.973Z,69.14
2022-08-02T04:44:11.710Z,69.12
2022-08-02T04:46:38.524Z,69.76
2022-08-02T04:49:05.302Z,69.28
2022-08-02T04:51:38.673Z,69.09
2022-08-02T04:54:09.621Z,68.42
2022-08-02T04:56:37.994Z,69.32
2022-08-02T04:59:04.774Z,69.26
2022-08-02T05:01:31.270Z,70.06
2022-08-02T05:03:57.822Z,69.48
2022-08-02T05:06:24.558Z,69.94
2022-08-02T05:08:53.045Z,69.28
2022-08-02T05:11:21.465Z,69.56
2022-08-02T05:13:58.092Z,71.20
2022-08-02T05:16:30.957Z,71.05
2022-08-02T05:18:59.209Z,72.31
2022-08-02T05:21:25.680Z,71.55
2022-08-02T05:23:52.185Z,72.16
2022-08-02T05:26:18.742Z,71.25
2022-08-02T05:28:45.209Z,73.28
2022-08-02T05:31:12.398Z,72.15
2022-08-02T05:33:40.113Z,72.06
2022-08-02T05:36:06.990Z,72.45
2022-08-02T05:38:36.930Z,72.29
2022-08-02T05:41:04.711Z,71.90
2022-08-02T05:43:31.198Z,71.83
2022-08-02T05:45:57.699Z,71.72
2022-08-02T05:48:27.829Z,71.54
2022-08-02T05:51:04.104Z,71.83
2022-08-02T05:53:47.591Z,71.35
2022-08-02T05:56:25.534Z,71.94
2022-08-02T05:59:05.565Z,71.28
2022-08-02T06:01:36.864Z,70.44
2022-08-02T06:04:07.406Z,71.67
2022-08-02T06:06:35.127Z,71.50
2022-08-02T06:09:06.716Z,69.70
2022-08-02T06:12:00.679Z,69.05
2022-08-02T06:14:32.158Z,68.48
2022-08-02T06:16:59.424Z,68.23
2022-08-02T06:19:26.247Z,68.51
2022-08-02T06:22:40.563Z,68.19
2022-08-02T06:24:39.516Z,69.02
2022-08-02T06:27:06.544Z,67.43
2022-08-02T06:29:38.460Z,68.21
2022-08-02T06:32:07.258Z,66.47
2022-08-02T06:34:38.378Z,67.28
2022-08-02T06:37:13.612Z,67.81
2022-08-02T06:39:49.463Z,66.92
2022-08-02T06:42:27.153Z,67.78
2022-08-02T06:44:57.703Z,67.08
2022-08-02T06:47:24.740Z,66.46
2022-08-02T06:49:54.220Z,66.79
2022-08-02T06:52:27.863Z,67.82
2022-08-02T06:54:59.462Z,66.81
2022-08-02T06:57:27.242Z,65.80
2022-08-02T06:59:53.800Z,66.12
2022-08-02T07:02:20.387Z,65.26
2022-08-02T07:04:46.908Z,65.27
2022-08-02T07:07:13.518Z,65.56
2022-08-02T07:09:40.015Z,64.49
2022-08-02T07:12:23.832Z,63.92
2022-08-02T07:14:50.296Z,64.03
2022-08-02T07:17:16.968Z,63.02
2022-08-02T07:19:43.557Z,64.02
2022-08-02T07:22:10.339Z,63.57
2022-08-02T07:24:36.862Z,63.64
2022-08-02T07:27:12.244Z,61.85
2022-08-02T07:29:46.661Z,60.83
2022-08-02T07:32:26.388Z,60.09
2022-08-02T07:34:54.250Z,60.42
2022-08-02T07:37:35.183Z,59.23
2022-08-02T07:40:20.524Z,58.46
2022-08-02T07:42:54.558Z,57.71
2022-08-02T07:45:23.837Z,56.60
2022-08-02T07:47:50.833Z,54.12
2022-08-02T07:50:19.514Z,55.22
2022-08-02T07:52:46.537Z,54.86
2022-08-02T07:55:14.281Z,52.75
2022-08-02T07:57:45.814Z,53.10
2022-08-02T08:00:13.747Z,54.59
2022-08-02T08:02:40.602Z,53.08
2022-08-02T08:05:07.669Z,52.52
2022-08-02T08:07:34.898Z,51.64
2022-08-02T08:10:01.669Z,51.28
2022-08-02T08:12:28.196Z,51.16
2022-08-02T08:14:54.661Z,52.02
2022-08-02T08:17:21.589Z,50.90
2022-08-02T08:19:51.211Z,50.77
2022-08-02T08:22:18.467Z,50.63
2022-08-02T08:24:45.418Z,50.84
2022-08-02T08:27:14.734Z,49.35
2022-08-02T08:29:44.666Z,49.14
2022-08-02T08:32:16.325Z,48.75
2022-08-02T08:34:44.014Z,46.76
2022-08-02T08:37:17.874Z,45.86
2022-08-02T08:39:56.802Z,46.20
2022-08-02T08:42:27.366Z,47.49
2022-08-02T08:44:57.984Z,46.09
2022-08-02T08:47:34.575Z,46.79
2022-08-02T08:50:11.578Z,46.11
2022-08-02T08:53:04.192Z,45.46
2022-08-02T08:55:32.294Z,44.91
2022-08-02T08:58:00.469Z,44.89
2022-08-02T09:00:27.662Z,46.01
2022-08-02T09:02:54.242Z,45.38
2022-08-02T09:05:20.826Z,46.04
2022-08-02T09:07:48.644Z,46.01
2022-08-02T09:10:41.175Z,45.06
2022-08-02T09:13:39.066Z,44.53
2022-08-02T09:16:11.292Z,43.01
2022-08-02T09:18:41.611Z,45.63
2022-08-02T09:21:09.006Z,44.77
2022-08-02T09:23:40.545Z,43.86
2022-08-02T09:26:25.358Z,43.22
2022-08-02T09:28:53.139Z,43.14
2022-08-02T09:31:23.839Z,42.36
2022-08-02T09:33:52.813Z,42.45
2022-08-02T09:36:19.418Z,41.96
2022-08-02T09:39:03.597Z,40.40
2022-08-02T09:41:31.863Z,40.31
2022-08-02T09:44:04.900Z,39.56
2022-08-02T09:46:43.230Z,37.36
2022-08-02T09:49:18.141Z,36.44
2022-08-02T09:51:52.967Z,37.33
2022-08-02T09:54:23.297Z,37.47
2022-08-02T09:56:52.003Z,36.86
2022-08-02T09:59:20.295Z,38.39
2022-08-02T10:01:51.266Z,39.25
2022-08-02T10:04:29.981Z,39.79
2022-08-02T10:06:59.548Z,39.94
2022-08-02T10:09:28.774Z,38.81
2022-08-02T10:11:55.485Z,38.83
2022-08-02T10:14:22.038Z,37.81
2022-08-02T10:16:48.594Z,38.15
2022-08-02T10:19:16.257Z,37.88
2022-08-02T10:22:08.914Z,37.70
2022-08-02T10:24:38.108Z,37.28
2022-08-02T10:27:05.496Z,36.66
2022-08-02T10:29:50.425Z,36.92
2022-08-02T10:32:25.502Z,35.66
2022-08-02T10:34:55.641Z,34.85
2022-08-02T10:37:28.593Z,35.04
2022-08-02T10:39:57.152Z,36.25
2022-08-02T10:42:48.319Z,34.01
2022-08-02T10:45:17.269Z,33.79
2022-08-02T10:48:02.927Z,34.46
2022-08-02T10:51:02.689Z,33.68
2022-08-02T10:53:31.036Z,34.43
2022-08-02T10:56:00.105Z,34.46
2022-08-02T10:58:30.434Z,33.84
2022-08-02T11:00:58.959Z,34.30
2022-08-02T11:03:39.406Z,33.27
2022-08-02T11:06:08.978Z,31.80
2022-08-02T11:08:51.355Z,32.12
2022-08-02T11:11:19.373Z,31.88
2022-08-02T11:14:09.669Z,30.76
2022-08-02T11:16:55.066Z,29.72
2022-08-02T11:19:22.378Z,29.96
2022-08-02T11:22:10.947Z,30.04
2022-08-02T11:24:39.138Z,29.96
2022-08-02T11:27:07.350Z,30.22
2022-08-02T11:29:44.405Z,30.65
2022-08-02T11:32:31.179Z,30.47
2022-08-02T11:34:58.912Z,29.87
2022-08-02T11:37:36.367Z,30.95
2022-08-02T11:40:13.324Z,30.16
2022-08-02T11:42:50.430Z,30.94
2022-08-02T11:45:21.515Z,30.22
2022-08-02T11:47:52.456Z,31.28
2022-08-02T11:50:29.677Z,31.24
2022-08-02T11:52:57.136Z,31.30
2022-08-02T11:55:31.182Z,31.91
2022-08-02T11:58:04.657Z,32.00
2022-08-02T12:00:31.820Z,31.14
2022-08-02T12:02:58.397Z,30.85
2022-08-02T12:05:51.352Z,30.82
2022-08-02T12:08:11.711Z,30.95
2022-08-02T12:10:47.791Z,30.30
2022-08-02T12:13:14.445Z,30.83
2022-08-02T12:15:45.682Z,31.45
2022-08-02T12:18:33.701Z,32.05
2022-08-02T12:21:00.417Z,32.41
2022-08-02T12:23:27.752Z,32.18
2022-08-02T12:26:05.546Z,32.52
2022-08-02T12:28:39.172Z,32.92
2022-08-02T12:31:18.746Z,32.10
2022-08-02T12:33:51.711Z,31.91
2022-08-02T12:36:20.058Z,32.09
2022-08-02T12:38:53.198Z,32.17
2022-08-02T12:41:30.205Z,32.93
2022-08-02T12:43:59.392Z,33.16
2022-08-02T12:46:26.010Z,32.89
2022-08-02T12:49:16.941Z,31.75
2022-08-02T12:51:56.630Z,31.80
2022-08-02T12:54:30.696Z,33.46
2022-08-02T12:56:59.018Z,33.13
2022-08-02T12:59:39.619Z,33.06
2022-08-02T13:02:08.894Z,33.50
2022-08-02T13:04:35.889Z,33.21
2022-08-02T13:07:02.965Z,33.78
2022-08-02T13:09:36.241Z,33.60
2022-08-02T13:12:03.483Z,33.49
2022-08-02T13:14:30.018Z,33.69
2022-08-02T13:16:56.745Z,32.60
2022-08-02T13:19:23.270Z,31.95
2022-08-02T13:22:02.509Z,32.65
2022-08-02T13:24:41.208Z,33.01
2022-08-02T13:27:23.572Z,33.35
2022-08-02T13:29:50.877Z,33.51
2022-08-02T13:32:17.795Z,33.27
2022-08-02T13:34:44.465Z,33.54
2022-08-02T13:37:11.029Z,34.03
2022-08-02T13:39:37.545Z,33.65
2022-08-02T13:42:04.194Z,34.40
2022-08-02T13:44:32.926Z,34.12
2022-08-02T13:46:59.422Z,34.68
2022-08-02T13:49:51.290Z,33.58
2022-08-02T13:52:13.019Z,33.54
2022-08-02T13:54:40.077Z,33.86
2022-08-02T13:57:06.629Z,34.78
2022-08-02T13:59:57.505Z,33.21
2022-08-02T14:02:19.680Z,33.64
2022-08-02T14:04:46.379Z,33.71
2022-08-02T14:07:12.962Z,33.67
2022-08-02T14:09:40.452Z,33.09
2022-08-02T14:12:09.714Z,33.90
2022-08-02T14:14:36.759Z,33.91
2022-08-02T14:17:03.303Z,33.43
2022-08-02T14:19:29.777Z,33.93
2022-08-02T14:22:11.243Z,33.62
2022-08-02T14:24:40.091Z,34.69
2022-08-02T14:27:06.611Z,34.85
2022-08-02T14:29:33.271Z,34.45
2022-08-02T14:31:59.780Z,34.68
2022-08-02T14:34:26.271Z,35.53
2022-08-02T14:36:54.018Z,34.78
2022-08-02T14:39:21.153Z,35.98
2022-08-02T14:41:58.989Z,35.79
2022-08-02T14:44:28.116Z,35.92
2022-08-02T14:46:54.858Z,35.46
2022-08-02T14:49:24.738Z,36.84
2022-08-02T14:51:56.659Z,36.00
2022-08-02T14:54:27.686Z,37.44
2022-08-02T14:57:02.719Z,36.68
2022-08-02T14:59:29.824Z,36.92
2022-08-02T15:01:56.365Z,36.80
2022-08-02T15:04:22.945Z,36.04
2022-08-02T15:06:49.617Z,36.35
2022-08-02T15:09:16.088Z,36.65
2022-08-02T15:11:47.434Z,37.20
2022-08-02T15:14:15.175Z,36.93
2022-08-02T15:16:55.556Z,36.76
2022-08-02T15:19:22.856Z,37.78
2022-08-02T15:21:54.457Z,38.02
2022-08-02T15:24:21.338Z,37.95
2022-08-02T15:26:48.394Z,38.23
2022-08-02T15:29:14.858Z,37.42
2022-08-02T15:31:41.911Z,37.48
2022-08-02T15:34:08.676Z,37.30
2022-08-02T15:36:35.217Z,37.86
2022-08-02T15:39:02.004Z,38.18
2022-08-02T15:41:28.499Z,38.73
2022-08-02T15:44:00.847Z,39.70
2022-08-02T15:46:32.097Z,38.97
2022-08-02T15:48:58.898Z,38.61
2022-08-02T15:51:26.595Z,39.50
2022-08-02T15:53:53.087Z,39.30
2022-08-02T15:56:23.887Z,39.84
2022-08-02T15:58:51.913Z,40.17
2022-08-02T16:01:24.024Z,40.12
2022-08-02T16:03:50.651Z,40.49
2022-08-02T16:06:17.263Z,41.05
2022-08-02T16:08:51.662Z,41.35
2022-08-02T16:11:22.519Z,40.80
2022-08-02T16:13:55.112Z,42.90
2022-08-02T16:16:26.583Z,43.58
2022-08-02T16:18:53.216Z,44.49
2022-08-02T16:21:19.804Z,44.96
2022-08-02T16:23:59.134Z,45.71
2022-08-02T16:26:31.239Z,46.34
2022-08-02T16:28:58.476Z,47.41
2022-08-02T16:31:24.964Z,49.91
2022-08-02T16:33:55.982Z,48.87
2022-08-02T16:36:25.119Z,51.88
2022-08-02T16:38:52.912Z,49.05
2022-08-02T16:41:20.363Z,49.86
2022-08-02T16:43:46.914Z,49.44
2022-08-02T16:46:13.609Z,49.69
2022-08-02T16:48:40.468Z,50.54
2022-08-02T16:51:13.709Z,49.89
2022-08-02T16:54:00.537Z,50.90
2022-08-02T16:56:30.061Z,51.20
2022-08-02T16:58:59.627Z,50.09
2022-08-02T17:01:27.579Z,49.60
2022-08-02T17:03:56.305Z,48.98
2022-08-02T17:09:10.488Z,48.20
2022-08-02T17:11:41.676Z,48.79
2022-08-02T17:14:13.342Z,48.39
2022-08-02T17:16:39.860Z,48.27
2022-08-02T17:19:06.910Z,48.11
2022-08-02T17:21:34.052Z,48.45
2022-08-02T17:24:05.031Z,47.93
2022-08-02T17:26:36.897Z,47.49
2022-08-02T17:29:14.101Z,47.25
2022-08-02T17:32:02.482Z,47.86
2022-08-02T17:34:30.927Z,47.92
2022-08-02T17:36:57.666Z,46.51
2022-08-02T17:39:24.287Z,47.04
2022-08-02T17:42:00.159Z,48.60
2022-08-02T17:44:37.722Z,49.17
2022-08-02T17:47:07.278Z,48.91
2022-08-02T17:49:42.727Z,48.63
2022-08-02T17:52:49.148Z,48.53
2022-08-02T17:54:57.920Z,48.77
2022-08-02T17:57:24.444Z,48.25
2022-08-02T18:00:11.636Z,49.00
2022-08-02T18:02:38.993Z,48.15
2022-08-02T18:05:05.891Z,47.85
2022-08-02T18:07:50.895Z,48.25
2022-08-02T18:10:20.777Z,48.24
2022-08-02T18:12:50.414Z,48.34
2022-08-02T18:15:20.039Z,49.01
2022-08-02T18:17:46.856Z,48.91
2022-08-02T18:20:13.420Z,48.94
2022-08-02T18:22:43.064Z,49.44
2022-08-02T18:25:11.546Z,49.60
2022-08-02T18:27:57.979Z,50.24
2022-08-02T18:30:28.483Z,49.63
2022-08-02T18:33:57.332Z,49.43
2022-08-02T18:35:42.835Z,50.80
2022-08-02T18:38:11.033Z,51.09
2022-08-02T18:40:38.549Z,50.04
2022-08-02T18:43:07.000Z,49.21
2022-08-02T18:46:04.857Z,49.22
2022-08-02T18:48:21.240Z,50.89
2022-08-02T18:50:48.442Z,50.65
2022-08-02T18:53:39.041Z,50.39
2022-08-02T18:56:06.875Z,50.10
2022-08-02T18:58:34.949Z,50.76
2022-08-02T19:01:05.054Z,50.98
2022-08-02T19:03:41.649Z,51.13
2022-08-02T19:06:19.581Z,50.29
2022-08-02T19:08:47.350Z,50.84
2022-08-02T19:11:35.118Z,50.36
2022-08-02T19:14:02.109Z,50.91
2022-08-02T19:16:37.764Z,52.01
2022-08-02T19:19:05.873Z,51.99
2022-08-02T19:22:17.583Z,51.61
2022-08-02T19:24:21.761Z,51.48
2022-08-02T19:26:52.088Z,51.67
2022-08-02T19:29:25.205Z,52.08
2022-08-02T19:32:40.791Z,51.70
2022-08-02T19:34:53.332Z,52.27
2022-08-02T19:37:21.071Z,52.24
2022-08-02T19:39:47.758Z,51.95
2022-08-02T19:42:14.764Z,53.00
2022-08-02T19:44:45.048Z,52.88
2022-08-02T19:47:12.482Z,52.79
2022-08-02T19:49:46.390Z,53.13
2022-08-02T19:52:21.556Z,52.73
2022-08-02T19:54:55.704Z,52.50
2022-08-02T19:57:23.422Z,52.45
2022-08-02T19:59:52.347Z,52.85
2022-08-02T20:02:19.382Z,52.18
2022-08-02T20:04:50.412Z,52.97
2022-08-02T20:07:48.217Z,52.47
2022-08-02T20:10:10.985Z,52.44
2022-08-02T20:12:39.255Z,52.86
2022-08-02T20:15:07.881Z,52.65
2022-08-02T20:17:43.613Z,53.01
2022-08-02T20:20:15.101Z,52.58
2022-08-02T20:23:00.819Z,52.96
2022-08-02T20:25:48.161Z,53.05
2022-08-02T20:28:15.484Z,53.00
2022-08-02T20:30:42.342Z,53.29
2022-08-02T20:33:20.972Z,53.56
2022-08-02T20:35:49.559Z,53.88
2022-08-02T20:38:16.506Z,53.26
2022-08-02T20:40:43.453Z,53.46
2022-08-02T20:43:10.442Z,53.49
2022-08-02T20:45:37.471Z,53.38
2022-08-02T20:48:04.385Z,53.73
2022-08-02T20:50:49.295Z,53.75
2022-08-02T20:53:23.187Z,52.85
2022-08-02T20:55:53.954Z,53.75
2022-08-02T20:58:21.106Z,53.60
2022-08-02T21:00:57.867Z,54.05
2022-08-02T21:03:24.432Z,53.96
2022-08-02T21:06:04.494Z,54.24
2022-08-02T21:08:30.978Z,54.20
2022-08-02T21:10:57.463Z,54.36
2022-08-02T21:13:25.955Z,54.06
2022-08-02T21:15:55.122Z,54.38
2022-08-02T21:18:26.562Z,54.07
2022-08-02T21:21:05.005Z,54.52
2022-08-02T21:23:36.523Z,54.69
2022-08-02T21:26:03.510Z,54.80
2022-08-02T21:28:35.030Z,55.09
2022-08-02T21:31:10.622Z,55.51
2022-08-02T21:33:56.708Z,55.50
2022-08-02T21:36:25.035Z,55.05
2022-08-02T21:38:58.111Z,55.29
2022-08-02T21:41:24.564Z,54.89
2022-08-02T21:44:06.902Z,54.44
2022-08-02T21:46:33.450Z,54.69
2022-08-02T21:49:01.502Z,55.92
2022-08-02T21:51:28.135Z,55.46
2022-08-02T21:54:18.474Z,55.89
2022-08-02T21:56:42.118Z,55.47
2022-08-02T21:59:15.811Z,55.28
2022-08-02T22:01:52.945Z,56.16
2022-08-02T22:04:20.383Z,57.08
2022-08-02T22:06:47.086Z,56.44
2022-08-02T22:09:17.419Z,56.58
2022-08-02T22:12:02.950Z,56.59
2022-08-02T22:14:29.407Z,57.01
2022-08-02T22:16:56.172Z,56.67
2022-08-02T22:19:22.730Z,57.53
2022-08-02T22:21:55.611Z,56.93
2022-08-02T22:24:29.890Z,56.36
2022-08-02T22:26:57.349Z,56.99
2022-08-02T22:29:23.854Z,57.26
2022-08-02T22:31:50.399Z,56.26
2022-08-02T22:37:07.418Z,57.56
2022-08-02T22:39:34.613Z,57.37
2022-08-02T22:42:06.952Z,57.04
2022-08-02T22:44:34.950Z,57.62
2022-08-02T22:47:13.904Z,57.88
2022-08-02T22:49:51.683Z,57.94
2022-08-02T22:52:22.831Z,58.43
2022-08-02T22:54:50.835Z,58.42
2022-08-02T22:57:30.192Z,58.55
2022-08-02T22:58:50.747Z,48.25
2022-08-02T22:59:09.518Z,57.21
2022-08-02T22:59:58.902Z,58.49
2022-08-02T23:02:25.456Z,58.85
2022-08-02T23:04:52.122Z,59.12
2022-08-02T23:07:18.691Z,59.25
2022-08-02T23:09:45.185Z,58.96
2022-08-02T23:12:11.641Z,59.41
2022-08-02T23:14:38.157Z,60.35
2022-08-02T23:17:23.241Z,59.73
2022-08-02T23:19:52.634Z,59.71
2022-08-02T23:22:29.255Z,60.03
2022-08-02T23:24:57.311Z,60.31
2022-08-02T23:27:23.774Z,59.72
2022-08-02T23:29:50.369Z,60.47
2022-08-02T23:32:17.537Z,60.63
2022-08-02T23:34:44.380Z,60.70
2022-08-02T23:37:11.889Z,60.59
2022-08-02T23:39:38.501Z,61.10
2022-08-02T23:42:05.324Z,62.33
2022-08-02T23:44:31.815Z,62.23
2022-08-02T23:47:00.298Z,63.11
2022-08-02T23:49:27.815Z,63.23
2022-08-02T23:52:01.246Z,62.94
2022-08-02T23:54:28.851Z,63.04
2022-08-02T23:56:55.746Z,63.58
2022-08-02T23:59:22.518Z,62.61
